createdAt,value
2022-10-23T00:00:10.099Z,4.93
2022-10-23T00:02:37.227Z,4.88
2022-10-23T00:05:04.122Z,5.50
2022-10-23T00:10:02.707Z,6.38
2022-10-23T00:12:29.600Z,6.38
2022-10-23T00:14:56.355Z,5.75
2022-10-23T00:17:23.135Z,6.78
2022-10-23T00:19:49.887Z,9.77
2022-10-23T00:22:16.659Z,12.20
2022-10-23T00:24:43.452Z,6.20
2022-10-23T00:27:10.237Z,7.68
2022-10-23T00:29:37.006Z,9.23
2022-10-23T00:32:03.839Z,10.27
2022-10-23T00:34:30.562Z,10.80
2022-10-23T00:36:57.306Z,10.95
2022-10-23T00:39:24.110Z,9.05
2022-10-23T00:41:50.914Z,10.80
2022-10-23T00:44:17.656Z,10.00
2022-10-23T00:46:46.082Z,9.35
2022-10-23T00:51:50.431Z,7.10
2022-10-23T00:54:24.446Z,6.15
2022-10-23T00:56:53.746Z,5.30
2022-10-23T00:59:20.501Z,4.93
2022-10-23T01:01:48.434Z,4.80
2022-10-23T01:04:15.682Z,4.32
2022-10-23T01:06:45.105Z,3.95
2022-10-23T01:09:14.674Z,3.17
2022-10-23T01:11:48.427Z,3.42
2022-10-23T01:14:15.167Z,2.63
2022-10-23T01:16:41.925Z,3.20
2022-10-23T01:19:17.552Z,2.80
2022-10-23T01:21:53.499Z,3.03
2022-10-23T01:24:46.271Z,3.08
2022-10-23T01:27:18.766Z,2.60
2022-10-23T01:30:11.588Z,2.80
2022-10-23T01:32:38.355Z,3.15
2022-10-23T01:35:13.166Z,3.00
2022-10-23T01:37:43.283Z,2.65
2022-10-23T01:40:13.503Z,2.75
2022-10-23T01:42:44.864Z,2.47
2022-10-23T01:45:19.303Z,2.72
2022-10-23T01:47:46.112Z,3.35
2022-10-23T01:50:14.544Z,3.00
2022-10-23T01:52:41.441Z,2.58
2022-10-23T01:55:09.972Z,2.83
2022-10-23T01:57:37.587Z,2.55
2022-10-23T02:00:08.957Z,2.67
2022-10-23T02:05:06.437Z,2.70
2022-10-23T02:07:34.364Z,2.92
2022-10-23T02:10:02.299Z,2.90
2022-10-23T02:12:41.159Z,2.53
2022-10-23T02:15:07.999Z,2.70
2022-10-23T02:17:42.282Z,2.55
2022-10-23T02:20:09.228Z,2.58
2022-10-23T02:22:38.422Z,2.83
2022-10-23T02:25:11.467Z,2.35
2022-10-23T02:27:40.818Z,2.60
2022-10-23T02:30:12.081Z,2.35
2022-10-23T02:35:06.162Z,2.58
2022-10-23T02:37:33.478Z,2.60
2022-10-23T02:40:00.515Z,2.72
2022-10-23T02:42:47.507Z,2.80
2022-10-23T02:45:21.888Z,2.40
2022-10-23T02:48:12.350Z,2.30
2022-10-23T02:50:48.311Z,2.30
2022-10-23T02:53:21.355Z,2.42
2022-10-23T02:55:48.070Z,2.38
2022-10-23T02:58:24.853Z,2.22
2022-10-23T03:00:54.661Z,2.70
2022-10-23T03:03:29.993Z,2.28
2022-10-23T03:05:56.862Z,2.22
2022-10-23T03:08:25.139Z,2.65
2022-10-23T03:10:52.080Z,2.28
2022-10-23T03:13:18.842Z,2.60
2022-10-23T03:15:45.585Z,2.80
2022-10-23T03:18:12.491Z,2.92
2022-10-23T03:20:39.272Z,2.47
2022-10-23T03:23:06.079Z,2.60
2022-10-23T03:25:32.879Z,2.70
2022-10-23T03:28:00.302Z,2.33
2022-10-23T03:30:27.063Z,2.67
2022-10-23T03:32:53.884Z,2.47
2022-10-23T03:35:20.627Z,2.45
2022-10-23T03:37:47.372Z,2.88
2022-10-23T03:40:14.186Z,2.58
2022-10-23T03:42:40.933Z,2.60
2022-10-23T03:45:07.911Z,2.22
2022-10-23T03:47:35.616Z,2.53
2022-10-23T03:50:02.403Z,2.47
2022-10-23T03:52:29.145Z,2.30
2022-10-23T03:54:55.919Z,2.20
2022-10-23T03:57:22.686Z,2.40
2022-10-23T03:59:49.419Z,2.25
2022-10-23T04:02:16.423Z,2.20
2022-10-23T04:04:43.300Z,2.17
2022-10-23T04:07:10.175Z,2.13
2022-10-23T04:09:36.964Z,2.10
2022-10-23T04:12:03.826Z,2.30
2022-10-23T04:14:30.690Z,2.25
2022-10-23T04:16:57.679Z,2.03
2022-10-23T04:19:24.500Z,1.88
2022-10-23T04:21:51.259Z,2.15
2022-10-23T04:24:18.023Z,2.15
2022-10-23T04:26:44.766Z,2.05
2022-10-23T04:29:11.940Z,2.22
2022-10-23T04:31:39.206Z,2.13
2022-10-23T04:36:37.583Z,2.63
2022-10-23T04:39:04.379Z,2.40
2022-10-23T04:41:31.170Z,2.03
2022-10-23T04:43:57.905Z,2.20
2022-10-23T04:46:24.686Z,2.17
2022-10-23T04:48:51.459Z,2.08
2022-10-23T04:51:18.221Z,2.08
2022-10-23T04:53:45.046Z,2.28
2022-10-23T04:56:13.547Z,2.20
2022-10-23T04:58:40.283Z,2.72
2022-10-23T05:01:07.557Z,2.63
2022-10-23T05:03:34.419Z,3.03
2022-10-23T05:06:01.159Z,2.80
2022-10-23T05:08:27.926Z,2.42
2022-10-23T05:10:54.674Z,2.83
2022-10-23T05:13:21.505Z,2.33
2022-10-23T05:15:49.024Z,2.50
2022-10-23T05:18:24.680Z,2.33
2022-10-23T05:20:54.149Z,2.10
2022-10-23T05:23:22.518Z,2.42
2022-10-23T05:25:49.351Z,1.83
2022-10-23T05:28:16.148Z,2.17
2022-10-23T05:30:43.087Z,2.00
2022-10-23T05:33:11.050Z,1.98
2022-10-23T05:35:38.570Z,2.03
2022-10-23T05:38:06.995Z,1.92
2022-10-23T05:40:33.805Z,1.63
2022-10-23T05:43:00.656Z,2.00
2022-10-23T05:45:27.426Z,1.70
2022-10-23T05:47:56.563Z,2.00
2022-10-23T05:52:52.197Z,2.10
2022-10-23T05:55:18.975Z,2.22
2022-10-23T05:57:46.051Z,2.13
2022-10-23T06:00:13.266Z,2.40
2022-10-23T06:02:40.149Z,2.15
2022-10-23T06:05:07.205Z,2.00
2022-10-23T06:07:35.844Z,2.30
2022-10-23T06:10:03.806Z,2.70
2022-10-23T06:12:31.200Z,2.20
2022-10-23T06:14:57.946Z,2.60
2022-10-23T06:17:24.781Z,2.45
2022-10-23T06:19:51.581Z,2.15
2022-10-23T06:24:49.958Z,2.28
2022-10-23T06:27:16.884Z,2.28
2022-10-23T06:29:43.649Z,2.08
2022-10-23T06:32:10.459Z,2.75
2022-10-23T06:34:37.215Z,2.30
2022-10-23T06:37:04.121Z,2.58
2022-10-23T06:39:32.177Z,2.40
2022-10-23T06:41:59.253Z,2.30
2022-10-23T06:44:26.060Z,2.78
2022-10-23T06:46:52.841Z,2.50
2022-10-23T06:49:19.687Z,2.38
2022-10-23T06:51:46.457Z,2.60
2022-10-23T06:54:13.284Z,2.60
2022-10-23T06:56:40.035Z,2.25
2022-10-23T06:59:07.773Z,2.40
2022-10-23T07:01:35.475Z,2.53
2022-10-23T07:04:02.665Z,2.50
2022-10-23T07:06:29.418Z,2.35
2022-10-23T07:08:56.487Z,2.50
2022-10-23T07:11:23.411Z,2.30
2022-10-23T07:13:50.237Z,2.58
2022-10-23T07:16:18.366Z,2.60
2022-10-23T07:18:45.496Z,2.38
2022-10-23T07:21:12.258Z,2.30
2022-10-23T07:23:39.026Z,2.40
2022-10-23T07:26:07.959Z,2.13
2022-10-23T07:28:35.131Z,2.25
2022-10-23T07:31:01.947Z,2.47
2022-10-23T07:33:28.978Z,2.20
2022-10-23T07:35:55.751Z,2.10
2022-10-23T07:38:22.508Z,2.15
2022-10-23T07:40:49.437Z,2.28
2022-10-23T07:43:18.518Z,2.60
2022-10-23T07:45:49.473Z,2.20
2022-10-23T07:48:16.711Z,2.08
2022-10-23T07:50:43.565Z,2.70
2022-10-23T07:53:36.585Z,2.38
2022-10-23T07:56:04.911Z,2.45
2022-10-23T07:58:31.646Z,2.35
2022-10-23T08:01:02.079Z,2.30
2022-10-23T08:03:30.706Z,2.60
2022-10-23T08:05:57.768Z,2.85
2022-10-23T08:08:25.186Z,2.80
2022-10-23T08:10:52.779Z,2.50
2022-10-23T08:13:22.812Z,2.50
2022-10-23T08:15:50.612Z,2.38
2022-10-23T08:18:17.433Z,3.33
2022-10-23T08:20:45.180Z,2.20
2022-10-23T08:23:12.923Z,2.90
2022-10-23T08:25:40.472Z,2.67
2022-10-23T08:28:08.039Z,2.47
2022-10-23T08:30:35.700Z,2.55
2022-10-23T08:33:06.085Z,2.53
2022-10-23T08:35:37.566Z,2.67
2022-10-23T08:38:05.008Z,2.65
2022-10-23T08:40:31.968Z,2.45
2022-10-23T08:43:01.569Z,2.33
2022-10-23T08:45:35.288Z,2.40
2022-10-23T08:48:05.524Z,2.10
2022-10-23T08:50:38.844Z,2.33
2022-10-23T08:53:05.559Z,2.35
2022-10-23T08:55:58.460Z,2.17
2022-10-23T08:58:37.390Z,2.58
2022-10-23T09:01:20.367Z,2.55
2022-10-23T09:03:47.243Z,2.70
2022-10-23T09:06:24.551Z,2.45
2022-10-23T09:08:54.422Z,2.60
2022-10-23T09:11:27.474Z,2.88
2022-10-23T09:14:00.338Z,2.95
2022-10-23T09:16:32.861Z,9.55
2022-10-23T09:18:59.643Z,7.97
2022-10-23T09:21:30.299Z,2.40
2022-10-23T09:23:57.083Z,2.70
2022-10-23T09:26:23.890Z,2.95
2022-10-23T09:28:51.879Z,2.67
2022-10-23T09:31:19.203Z,2.67
2022-10-23T09:34:00.135Z,3.03
2022-10-23T09:36:29.354Z,2.45
2022-10-23T09:38:58.916Z,2.55
2022-10-23T09:41:29.022Z,2.65
2022-10-23T09:44:00.051Z,2.70
2022-10-23T09:46:36.499Z,2.60
2022-10-23T09:49:05.697Z,2.63
2022-10-23T09:51:32.890Z,2.60
2022-10-23T09:54:00.337Z,2.72
2022-10-23T09:56:27.111Z,2.70
2022-10-23T09:58:55.966Z,2.67
2022-10-23T10:01:24.155Z,2.33
2022-10-23T10:03:51.761Z,2.50
2022-10-23T10:06:28.801Z,2.30
2022-10-23T10:08:57.084Z,2.10
2022-10-23T10:11:27.739Z,2.13
2022-10-23T10:13:58.833Z,2.00
2022-10-23T10:16:31.898Z,2.03
2022-10-23T10:19:05.004Z,2.55
2022-10-23T10:21:41.438Z,1.95
2022-10-23T10:24:12.540Z,1.90
2022-10-23T10:26:55.901Z,1.70
2022-10-23T10:29:34.967Z,1.45
2022-10-23T10:32:17.798Z,1.30
2022-10-23T10:34:44.528Z,1.02
2022-10-23T10:37:29.454Z,1.35
2022-10-23T10:40:02.521Z,0.98
2022-10-23T10:43:01.683Z,1.30
2022-10-23T10:45:47.590Z,0.95
2022-10-23T10:48:33.041Z,1.10
2022-10-23T10:51:02.609Z,1.10
2022-10-23T10:53:49.612Z,1.08
2022-10-23T10:56:17.796Z,1.15
2022-10-23T10:58:44.553Z,0.98
2022-10-23T11:01:26.579Z,1.10
2022-10-23T11:04:08.875Z,1.15
2022-10-23T11:06:36.691Z,1.48
2022-10-23T11:09:24.407Z,1.40
2022-10-23T11:11:51.331Z,1.30
2022-10-23T11:14:19.579Z,1.05
2022-10-23T11:16:59.681Z,1.10
2022-10-23T11:19:32.710Z,1.05
2022-10-23T11:21:59.540Z,1.02
2022-10-23T11:24:32.321Z,1.00
2022-10-23T11:27:17.675Z,0.95
2022-10-23T11:30:02.969Z,1.27
2022-10-23T11:32:38.922Z,1.20
2022-10-23T11:35:08.539Z,1.20
2022-10-23T11:37:35.294Z,1.20
2022-10-23T11:40:13.766Z,1.33
2022-10-23T11:42:40.775Z,1.02
2022-10-23T11:45:26.151Z,1.10
2022-10-23T11:47:57.253Z,0.88
2022-10-23T11:50:27.155Z,1.10
2022-10-23T11:53:15.441Z,0.90
2022-10-23T11:55:56.763Z,0.90
2022-10-23T11:58:31.486Z,0.88
2022-10-23T12:01:01.179Z,0.73
2022-10-23T12:03:39.544Z,0.90
2022-10-23T12:06:06.583Z,0.73
2022-10-23T12:08:35.324Z,0.82
2022-10-23T12:11:02.113Z,0.90
2022-10-23T12:13:37.815Z,1.15
2022-10-23T12:16:07.467Z,0.93
2022-10-23T12:18:44.822Z,0.80
2022-10-23T12:21:22.083Z,1.00
2022-10-23T12:23:48.841Z,0.90
2022-10-23T12:26:18.396Z,0.90
2022-10-23T12:29:02.471Z,1.50
2022-10-23T12:31:29.195Z,0.80
2022-10-23T12:34:14.595Z,0.90
2022-10-23T12:37:00.082Z,0.90
2022-10-23T12:39:30.884Z,0.90
2022-10-23T12:41:58.681Z,0.90
2022-10-23T12:44:25.851Z,0.73
2022-10-23T12:47:00.661Z,0.77
2022-10-23T12:49:28.504Z,0.82
2022-10-23T12:51:57.298Z,0.75
2022-10-23T12:54:24.069Z,0.90
2022-10-23T12:56:51.246Z,0.80
2022-10-23T12:59:23.124Z,0.80
2022-10-23T13:01:52.802Z,0.90
2022-10-23T13:04:30.133Z,0.90
2022-10-23T13:06:58.577Z,0.85
2022-10-23T13:09:30.154Z,0.75
2022-10-23T13:11:57.513Z,0.93
2022-10-23T13:14:37.300Z,0.88
2022-10-23T13:17:07.435Z,0.70
2022-10-23T13:19:34.682Z,1.02
2022-10-23T13:22:03.066Z,0.90
2022-10-23T13:24:30.609Z,0.90
2022-10-23T13:26:57.948Z,0.82
2022-10-23T13:29:27.912Z,1.00
2022-10-23T13:31:54.760Z,1.17
2022-10-23T13:34:29.191Z,0.80
2022-10-23T13:37:00.694Z,1.30
2022-10-23T13:39:29.831Z,0.93
2022-10-23T13:41:57.280Z,1.20
2022-10-23T13:44:24.752Z,1.25
2022-10-23T13:46:52.400Z,1.40
2022-10-23T13:49:19.349Z,1.02
2022-10-23T13:51:48.675Z,1.58
2022-10-23T13:54:17.261Z,1.50
2022-10-23T13:56:44.517Z,1.27
2022-10-23T13:59:11.854Z,1.50
2022-10-23T14:01:39.016Z,1.45
2022-10-23T14:04:06.687Z,1.40
2022-10-23T14:06:33.826Z,1.30
2022-10-23T14:09:00.889Z,1.20
2022-10-23T14:11:27.702Z,1.35
2022-10-23T14:13:54.520Z,1.10
2022-10-23T14:16:21.771Z,1.42
2022-10-23T14:18:48.542Z,1.50
2022-10-23T14:21:16.457Z,1.52
2022-10-23T14:23:43.418Z,1.70
2022-10-23T14:26:11.673Z,1.40
2022-10-23T14:28:38.418Z,1.33
2022-10-23T14:31:05.765Z,1.48
2022-10-23T14:33:32.727Z,1.45
2022-10-23T14:35:59.528Z,1.90
2022-10-23T14:38:26.768Z,1.45
2022-10-23T14:40:53.606Z,1.50
2022-10-23T14:43:20.807Z,1.50
2022-10-23T14:45:47.600Z,1.40
2022-10-23T14:48:14.354Z,1.40
2022-10-23T14:50:45.005Z,1.42
2022-10-23T14:53:11.840Z,2.35
2022-10-23T14:55:38.840Z,2.10
2022-10-23T14:58:05.959Z,2.22
2022-10-23T15:00:32.816Z,2.20
2022-10-23T15:02:59.590Z,2.15
2022-10-23T15:05:26.400Z,2.10
2022-10-23T15:07:54.798Z,2.28
2022-10-23T15:10:21.549Z,2.17
2022-10-23T15:12:49.152Z,2.40
2022-10-23T15:15:16.017Z,2.35
2022-10-23T15:17:42.880Z,2.30
2022-10-23T15:20:09.892Z,2.40
2022-10-23T15:22:36.759Z,2.40
2022-10-23T15:25:03.661Z,2.00
2022-10-23T15:27:30.455Z,2.40
2022-10-23T15:29:57.212Z,2.03
2022-10-23T15:32:24.021Z,2.38
2022-10-23T15:34:52.131Z,2.40
2022-10-23T15:37:18.963Z,2.50
2022-10-23T15:39:45.934Z,2.40
2022-10-23T15:42:12.761Z,2.15
2022-10-23T15:44:40.065Z,2.90
2022-10-23T15:47:06.940Z,3.40
2022-10-23T15:49:33.860Z,2.92
2022-10-23T15:52:00.845Z,3.42
2022-10-23T15:54:30.578Z,2.83
2022-10-23T15:56:59.739Z,1.75
2022-10-23T15:59:27.023Z,1.30
2022-10-23T16:01:54.102Z,1.23
2022-10-23T16:04:21.143Z,1.30
2022-10-23T16:06:48.285Z,1.15
2022-10-23T16:09:15.417Z,1.20
2022-10-23T16:11:42.906Z,1.05
2022-10-23T16:14:13.559Z,1.08
2022-10-23T16:16:40.393Z,1.10
2022-10-23T16:19:07.159Z,1.20
2022-10-23T16:21:36.169Z,1.10
2022-10-23T16:24:04.543Z,1.10
2022-10-23T16:26:31.751Z,1.17
2022-10-23T16:28:59.883Z,1.15
2022-10-23T16:31:26.948Z,1.10
2022-10-23T16:33:54.279Z,1.10
2022-10-23T16:36:21.328Z,1.25
2022-10-23T16:38:48.125Z,1.63
2022-10-23T16:41:14.913Z,1.17
2022-10-23T16:43:41.691Z,1.20
2022-10-23T16:46:11.892Z,1.33
2022-10-23T16:48:38.694Z,1.40
2022-10-23T16:51:15.871Z,1.77
2022-10-23T16:53:43.108Z,1.50
2022-10-23T16:56:10.833Z,1.45
2022-10-23T16:58:40.922Z,1.60
2022-10-23T17:01:15.608Z,1.58
2022-10-23T17:03:43.986Z,2.00
2022-10-23T17:06:12.600Z,1.70
2022-10-23T17:08:40.036Z,1.80
2022-10-23T17:11:09.409Z,1.80
2022-10-23T17:13:36.806Z,1.70
2022-10-23T17:16:07.599Z,1.77
2022-10-23T17:18:34.701Z,1.40
2022-10-23T17:21:01.637Z,1.50
2022-10-23T17:23:28.832Z,1.58
2022-10-23T17:25:56.541Z,1.77
2022-10-23T17:28:23.682Z,1.40
2022-10-23T17:30:50.442Z,1.30
2022-10-23T17:33:17.334Z,1.55
2022-10-23T17:35:45.355Z,1.52
2022-10-23T17:38:17.992Z,1.75
2022-10-23T17:40:47.751Z,1.50
2022-10-23T17:43:15.486Z,1.85
2022-10-23T17:45:45.033Z,1.70
2022-10-23T17:48:12.902Z,1.77
2022-10-23T17:50:40.510Z,1.55
2022-10-23T17:53:07.679Z,1.77
2022-10-23T17:55:40.577Z,1.65
2022-10-23T17:58:07.657Z,1.52
2022-10-23T18:00:37.942Z,1.50
2022-10-23T18:03:05.009Z,1.50
2022-10-23T18:05:33.127Z,1.45
2022-10-23T18:08:00.258Z,1.40
2022-10-23T18:10:27.451Z,1.15
2022-10-23T18:12:54.602Z,1.60
2022-10-23T18:15:21.416Z,1.55
2022-10-23T18:17:48.150Z,1.85
2022-10-23T18:20:15.827Z,1.80
2022-10-23T18:22:42.892Z,1.52
2022-10-23T18:25:10.209Z,1.58
2022-10-23T18:27:37.156Z,2.08
2022-10-23T18:30:04.084Z,1.88
2022-10-23T18:32:30.901Z,1.40
2022-10-23T18:34:57.715Z,1.80
2022-10-23T18:37:26.820Z,1.50
2022-10-23T18:39:55.624Z,1.63
2022-10-23T18:42:22.380Z,2.10
2022-10-23T18:44:50.069Z,3.17
2022-10-23T18:49:48.623Z,2.38
2022-10-23T18:52:15.382Z,2.08
2022-10-23T18:54:42.147Z,2.45
2022-10-23T18:57:08.919Z,2.33
2022-10-23T18:59:35.755Z,2.08
2022-10-23T19:02:02.690Z,2.00
2022-10-23T19:04:32.789Z,2.05
2022-10-23T19:07:02.442Z,1.60
2022-10-23T19:09:29.245Z,1.63
2022-10-23T19:11:56.826Z,1.65
2022-10-23T19:14:23.589Z,2.15
2022-10-23T19:17:01.050Z,1.85
2022-10-23T19:19:33.784Z,3.15
2022-10-23T19:22:02.223Z,3.22
2022-10-23T19:24:33.650Z,3.35
2022-10-23T19:27:00.739Z,3.47
2022-10-23T19:29:28.657Z,3.03
2022-10-23T19:31:55.631Z,3.00
2022-10-23T19:34:24.763Z,4.28
2022-10-23T19:36:52.821Z,4.43
2022-10-23T19:39:19.818Z,3.90
2022-10-23T19:41:46.808Z,3.85
2022-10-23T19:44:14.707Z,2.83
2022-10-23T19:46:41.464Z,2.60
2022-10-23T19:49:09.070Z,3.15
2022-10-23T19:51:35.866Z,2.40
2022-10-23T19:54:02.776Z,2.90
2022-10-23T19:56:29.569Z,2.72
2022-10-23T19:58:56.394Z,2.85
2022-10-23T20:01:24.499Z,3.33
2022-10-23T20:03:51.718Z,3.85
2022-10-23T20:06:23.189Z,4.20
2022-10-23T20:08:50.521Z,3.80
2022-10-23T20:11:20.521Z,3.65
2022-10-23T20:13:48.498Z,4.22
2022-10-23T20:16:22.521Z,4.95
2022-10-23T20:18:49.725Z,3.90
2022-10-23T20:21:16.497Z,4.03
2022-10-23T20:23:43.363Z,3.90
2022-10-23T20:26:11.652Z,3.30
2022-10-23T20:28:38.590Z,3.03
2022-10-23T20:31:09.398Z,2.88
2022-10-23T20:33:37.457Z,2.08
2022-10-23T20:36:05.685Z,1.85
2022-10-23T20:38:32.833Z,1.60
2022-10-23T20:41:03.973Z,1.63
2022-10-23T20:43:32.319Z,1.65
2022-10-23T20:46:06.106Z,1.70
2022-10-23T20:48:36.563Z,1.80
2022-10-23T20:51:04.126Z,1.45
2022-10-23T20:53:31.278Z,1.08
2022-10-23T20:55:58.179Z,1.10
2022-10-23T20:58:24.939Z,1.10
2022-10-23T21:03:19.400Z,0.90
2022-10-23T21:05:47.082Z,1.35
2022-10-23T21:08:13.920Z,0.70
2022-10-23T21:10:49.419Z,0.80
2022-10-23T21:13:16.190Z,0.73
2022-10-23T21:15:42.951Z,0.82
2022-10-23T21:18:27.589Z,0.60
2022-10-23T21:21:02.359Z,0.73
2022-10-23T21:23:29.096Z,0.55
2022-10-23T21:25:55.823Z,0.43
2022-10-23T21:28:22.606Z,0.50
2022-10-23T21:30:49.365Z,0.28
2022-10-23T21:33:16.136Z,0.50
2022-10-23T21:35:52.308Z,0.50
2022-10-23T21:38:25.562Z,0.52
2022-10-23T21:40:52.431Z,0.40
2022-10-23T21:43:19.198Z,0.50
2022-10-23T21:45:45.979Z,0.68
2022-10-23T21:48:12.758Z,0.65
2022-10-23T21:50:39.565Z,0.70
2022-10-23T21:53:06.429Z,0.60
2022-10-23T21:55:33.247Z,0.90
2022-10-23T21:58:00.022Z,0.70
2022-10-23T22:00:26.752Z,0.80
2022-10-23T22:02:53.584Z,0.80
2022-10-23T22:05:20.358Z,1.00
2022-10-23T22:07:48.043Z,1.27
2022-10-23T22:10:14.919Z,1.35
2022-10-23T22:12:41.708Z,1.30
2022-10-23T22:15:08.756Z,1.00
2022-10-23T22:17:35.541Z,1.08
2022-10-23T22:20:02.307Z,0.95
2022-10-23T22:22:29.094Z,0.90
2022-10-23T22:24:55.922Z,1.20
2022-10-23T22:27:22.681Z,0.93
2022-10-23T22:29:49.414Z,0.80
2022-10-23T22:32:16.197Z,0.80
2022-10-23T22:34:52.978Z,1.00
2022-10-23T22:37:20.380Z,1.02
2022-10-23T22:39:50.160Z,1.00
2022-10-23T22:42:16.893Z,0.82
2022-10-23T22:44:43.683Z,0.85
2022-10-23T22:47:10.534Z,0.90
2022-10-23T22:49:38.413Z,1.10
2022-10-23T22:52:05.211Z,1.35
2022-10-23T22:54:32.014Z,1.63
2022-10-23T22:57:01.863Z,1.70
2022-10-23T22:59:28.715Z,1.25
2022-10-23T23:01:55.528Z,1.48
2022-10-23T23:04:38.893Z,1.65
2022-10-23T23:07:10.460Z,2.17
2022-10-23T23:09:38.363Z,2.10
2022-10-23T23:12:05.892Z,1.35
2022-10-23T23:14:32.697Z,1.50
2022-10-23T23:16:59.499Z,1.65
2022-10-23T23:19:26.703Z,1.40
2022-10-23T23:21:57.358Z,1.88
2022-10-23T23:24:24.320Z,2.00
2022-10-23T23:26:51.395Z,1.73
2022-10-23T23:29:18.309Z,1.60
2022-10-23T23:31:45.424Z,1.35
2022-10-23T23:34:12.198Z,1.65
2022-10-23T23:36:39.002Z,1.45
2022-10-23T23:39:05.771Z,1.20
2022-10-23T23:41:32.535Z,1.50
2022-10-23T23:43:59.313Z,1.60
2022-10-23T23:46:26.148Z,1.85
2022-10-23T23:48:52.955Z,1.80
2022-10-23T23:51:23.518Z,1.73
2022-10-23T23:53:50.355Z,2.22
2022-10-23T23:56:17.385Z,2.15
2022-10-23T23:58:44.516Z,2.05
